createdAt,value
2024-04-30T00:00:54.705Z,1.95
2024-04-30T00:03:23.737Z,1.75
2024-04-30T00:05:52.567Z,1.87
2024-04-30T00:08:21.972Z,1.80
2024-04-30T00:10:50.809Z,1.35
2024-04-30T00:13:19.816Z,1.77
2024-04-30T00:15:48.871Z,2.08
2024-04-30T00:18:17.688Z,1.47
2024-04-30T00:20:46.553Z,1.72
2024-04-30T00:23:15.364Z,2.00
2024-04-30T00:25:44.175Z,2.00
2024-04-30T00:28:14.106Z,1.85
2024-04-30T00:30:43.146Z,1.80
2024-04-30T00:33:12.019Z,1.67
2024-04-30T00:35:40.926Z,2.33
2024-04-30T00:38:09.813Z,2.15
2024-04-30T00:40:38.787Z,2.12
2024-04-30T00:43:07.849Z,2.35
2024-04-30T00:45:36.628Z,2.02
2024-04-30T00:48:06.650Z,2.25
2024-04-30T00:50:37.032Z,1.65
2024-04-30T00:53:07.625Z,2.12
2024-04-30T00:55:36.508Z,1.85
2024-04-30T00:58:05.416Z,2.15
2024-04-30T01:00:34.551Z,1.90
2024-04-30T01:03:03.732Z,1.55
2024-04-30T01:05:32.613Z,2.12
2024-04-30T01:08:01.486Z,2.22
2024-04-30T01:10:31.378Z,1.55
2024-04-30T01:13:01.316Z,2.00
2024-04-30T01:15:30.161Z,2.50
2024-04-30T01:17:59.248Z,1.72
2024-04-30T01:20:28.320Z,2.17
2024-04-30T01:22:57.138Z,2.33
2024-04-30T01:25:26.104Z,2.27
2024-04-30T01:27:54.985Z,2.08
2024-04-30T01:30:24.688Z,2.87
2024-04-30T01:32:53.590Z,1.95
2024-04-30T01:35:22.583Z,1.70
2024-04-30T01:37:52.346Z,2.02
2024-04-30T01:40:21.243Z,2.47
2024-04-30T01:42:50.069Z,2.08
2024-04-30T01:45:20.829Z,2.50
2024-04-30T01:47:49.723Z,2.47
2024-04-30T01:50:19.695Z,2.37
2024-04-30T01:52:48.510Z,1.90
2024-04-30T01:55:17.397Z,1.98
2024-04-30T01:57:48.829Z,2.95
2024-04-30T02:00:17.822Z,2.60
2024-04-30T02:02:46.728Z,2.45
2024-04-30T02:05:21.135Z,2.42
2024-04-30T02:07:47.900Z,2.02
2024-04-30T02:10:17.343Z,1.95
2024-04-30T02:12:46.410Z,2.58
2024-04-30T02:15:15.313Z,2.15
2024-04-30T02:17:44.195Z,2.30
2024-04-30T02:20:14.136Z,2.30
2024-04-30T02:22:42.953Z,2.52
2024-04-30T02:25:11.810Z,2.12
2024-04-30T02:27:41.846Z,2.58
2024-04-30T02:30:12.530Z,1.87
2024-04-30T02:33:00.737Z,2.33
2024-04-30T02:35:29.776Z,2.60
2024-04-30T02:37:59.510Z,2.27
2024-04-30T02:40:28.405Z,2.12
2024-04-30T02:42:57.338Z,2.77
2024-04-30T02:45:26.147Z,2.35
2024-04-30T02:47:55.916Z,2.08
2024-04-30T02:50:24.710Z,2.62
2024-04-30T02:52:53.523Z,2.20
2024-04-30T02:55:25.029Z,2.62
2024-04-30T02:57:53.586Z,2.85
2024-04-30T03:00:22.408Z,2.27
2024-04-30T03:02:51.315Z,2.37
2024-04-30T03:05:21.024Z,2.33
2024-04-30T03:07:49.839Z,2.45
2024-04-30T03:10:18.694Z,2.70
2024-04-30T03:12:51.824Z,2.17
2024-04-30T03:15:20.657Z,2.67
2024-04-30T03:17:49.740Z,2.37
2024-04-30T03:20:18.742Z,3.00
2024-04-30T03:22:48.062Z,2.80
2024-04-30T03:25:16.878Z,2.22
2024-04-30T03:27:45.857Z,2.30
2024-04-30T03:30:14.665Z,2.60
2024-04-30T03:32:44.187Z,2.22
2024-04-30T03:35:14.151Z,2.72
2024-04-30T03:37:42.995Z,2.87
2024-04-30T03:40:11.831Z,2.30
2024-04-30T03:42:40.696Z,2.58
2024-04-30T03:45:09.514Z,2.55
2024-04-30T03:47:38.424Z,2.17
2024-04-30T03:50:08.274Z,2.20
2024-04-30T03:52:37.266Z,2.72
2024-04-30T03:55:06.408Z,2.67
2024-04-30T03:57:35.194Z,2.33
2024-04-30T04:00:05.081Z,2.62
2024-04-30T04:02:33.387Z,2.50
2024-04-30T04:05:02.324Z,2.58
2024-04-30T04:07:31.217Z,2.52
2024-04-30T04:10:00.077Z,2.22
2024-04-30T04:12:46.675Z,2.50
2024-04-30T04:15:15.524Z,2.62
2024-04-30T04:17:44.546Z,3.37
2024-04-30T04:20:13.459Z,2.60
2024-04-30T04:22:42.399Z,2.72
2024-04-30T04:25:13.277Z,2.70
2024-04-30T04:27:41.572Z,3.07
2024-04-30T04:30:10.634Z,2.80
2024-04-30T04:32:39.512Z,2.40
2024-04-30T04:35:08.637Z,2.65
2024-04-30T04:37:37.554Z,2.92
2024-04-30T04:40:07.020Z,3.15
2024-04-30T04:42:36.770Z,2.83
2024-04-30T04:45:05.759Z,2.80
2024-04-30T04:47:34.775Z,3.35
2024-04-30T04:50:03.762Z,3.00
2024-04-30T04:52:32.644Z,3.65
2024-04-30T04:55:04.092Z,3.17
2024-04-30T04:57:31.876Z,4.37
2024-04-30T05:00:00.765Z,3.58
2024-04-30T05:02:29.671Z,3.35
2024-04-30T05:04:59.924Z,3.15
2024-04-30T05:07:28.963Z,3.20
2024-04-30T05:09:57.809Z,3.22
2024-04-30T05:12:26.685Z,3.22
2024-04-30T05:14:55.933Z,3.12
2024-04-30T05:17:24.909Z,2.75
2024-04-30T05:19:53.889Z,3.00
2024-04-30T05:22:22.445Z,2.40
2024-04-30T05:24:51.350Z,2.42
2024-04-30T05:27:19.894Z,2.37
2024-04-30T05:29:48.448Z,2.20
2024-04-30T05:32:17.059Z,2.00
2024-04-30T05:34:46.577Z,2.00
2024-04-30T05:37:15.108Z,2.23
2024-04-30T05:39:43.700Z,1.90
2024-04-30T05:42:12.245Z,2.27
2024-04-30T05:44:40.810Z,2.33
2024-04-30T05:47:10.311Z,2.00
2024-04-30T05:49:38.990Z,1.90
2024-04-30T05:52:07.639Z,1.90
2024-04-30T05:54:36.533Z,1.70
2024-04-30T05:57:05.465Z,2.10
2024-04-30T05:59:34.934Z,2.00
2024-04-30T06:02:03.472Z,2.53
2024-04-30T06:04:32.184Z,2.13
2024-04-30T06:07:00.990Z,1.93
2024-04-30T06:09:29.728Z,1.97
2024-04-30T06:11:58.837Z,1.87
2024-04-30T06:14:28.129Z,1.93
2024-04-30T06:16:56.672Z,1.60
2024-04-30T06:19:25.268Z,1.50
2024-04-30T06:21:53.847Z,2.10
2024-04-30T06:24:22.362Z,1.83
2024-04-30T06:26:52.023Z,1.60
2024-04-30T06:29:21.527Z,1.63
2024-04-30T06:31:50.057Z,1.67
2024-04-30T06:34:18.619Z,1.53
2024-04-30T06:36:49.201Z,1.63
2024-04-30T06:39:19.092Z,1.57
2024-04-30T06:41:49.643Z,2.10
2024-04-30T06:44:17.880Z,1.87
2024-04-30T06:46:46.503Z,2.27
2024-04-30T06:49:15.296Z,1.90
2024-04-30T06:51:43.866Z,1.70
2024-04-30T06:54:12.449Z,1.50
2024-04-30T06:56:40.979Z,1.20
2024-04-30T06:59:10.392Z,1.27
2024-04-30T07:01:39.921Z,1.47
2024-04-30T07:04:08.652Z,1.87
2024-04-30T07:06:37.297Z,1.53
2024-04-30T07:09:06.712Z,1.23
2024-04-30T07:11:35.376Z,1.47
2024-04-30T07:14:04.020Z,1.30
2024-04-30T07:16:34.157Z,1.43
2024-04-30T07:19:02.791Z,1.07
2024-04-30T07:21:31.273Z,1.20
2024-04-30T07:23:59.815Z,1.30
2024-04-30T07:26:28.326Z,1.50
2024-04-30T07:28:56.856Z,1.00
2024-04-30T07:31:25.496Z,1.57
2024-04-30T07:33:54.784Z,1.67
2024-04-30T07:36:24.497Z,1.37
2024-04-30T07:38:53.038Z,1.30
2024-04-30T07:41:21.728Z,1.00
2024-04-30T07:43:50.319Z,1.10
2024-04-30T07:46:21.221Z,0.97
2024-04-30T07:48:49.964Z,1.22
2024-04-30T07:51:18.524Z,1.47
2024-04-30T07:53:47.051Z,1.23
2024-04-30T07:56:15.578Z,1.10
2024-04-30T07:58:44.235Z,1.60
2024-04-30T08:01:13.043Z,0.93
2024-04-30T08:03:42.732Z,1.03
2024-04-30T08:06:18.717Z,1.03
2024-04-30T08:08:44.417Z,1.00
2024-04-30T08:11:13.119Z,1.00
2024-04-30T08:13:45.097Z,0.90
2024-04-30T08:16:14.665Z,0.90
2024-04-30T08:18:43.333Z,1.30
2024-04-30T08:21:11.996Z,1.00
2024-04-30T08:23:40.560Z,1.30
2024-04-30T08:26:10.082Z,0.87
2024-04-30T08:28:40.713Z,0.80
2024-04-30T08:33:37.040Z,0.90
2024-04-30T08:36:05.815Z,0.80
2024-04-30T08:38:34.374Z,0.50
2024-04-30T08:41:05.445Z,1.00
2024-04-30T08:43:34.889Z,0.93
2024-04-30T08:46:03.878Z,0.90
2024-04-30T08:48:33.993Z,0.80
2024-04-30T08:51:02.691Z,0.67
2024-04-30T08:53:31.347Z,0.43
2024-04-30T08:56:00.042Z,0.90
2024-04-30T08:58:29.538Z,0.50
2024-04-30T09:00:58.395Z,0.80
2024-04-30T09:03:27.656Z,0.57
2024-04-30T09:05:56.423Z,0.60
2024-04-30T09:08:25.187Z,0.50
2024-04-30T09:10:53.805Z,0.70
2024-04-30T09:13:23.924Z,0.50
2024-04-30T09:16:02.093Z,0.40
2024-04-30T09:18:30.701Z,0.30
2024-04-30T09:21:08.160Z,0.73
2024-04-30T09:23:31.063Z,0.30
2024-04-30T09:26:00.073Z,0.50
2024-04-30T09:28:29.526Z,0.40
2024-04-30T09:30:59.237Z,0.40
2024-04-30T09:33:29.135Z,0.60
2024-04-30T09:36:09.759Z,0.50
2024-04-30T09:38:38.907Z,0.90
2024-04-30T09:41:09.024Z,0.67
2024-04-30T09:43:37.846Z,0.47
2024-04-30T09:46:08.110Z,0.47
2024-04-30T09:48:36.791Z,0.53
2024-04-30T09:51:06.404Z,0.60
2024-04-30T09:53:35.591Z,0.60
2024-04-30T09:56:06.085Z,0.70
2024-04-30T09:58:38.108Z,0.55
2024-04-30T10:01:08.488Z,0.33
2024-04-30T10:03:38.051Z,0.47
2024-04-30T10:06:08.883Z,0.50
2024-04-30T10:08:38.586Z,0.30
2024-04-30T10:11:12.350Z,0.90
2024-04-30T10:13:48.235Z,0.67
2024-04-30T10:16:17.223Z,0.60
2024-04-30T10:18:45.780Z,0.50
2024-04-30T10:21:14.350Z,0.43
2024-04-30T10:23:45.054Z,0.40
2024-04-30T10:26:15.143Z,0.65
2024-04-30T10:28:43.752Z,0.30
2024-04-30T10:31:18.687Z,0.70
2024-04-30T10:33:47.515Z,0.50
2024-04-30T10:36:17.882Z,0.50
2024-04-30T10:38:46.365Z,0.83
2024-04-30T10:41:15.070Z,0.67
2024-04-30T10:43:43.757Z,1.00
2024-04-30T10:46:16.652Z,0.37
2024-04-30T10:48:49.796Z,0.30
2024-04-30T10:51:18.780Z,0.30
2024-04-30T10:53:48.773Z,0.60
2024-04-30T10:56:18.441Z,0.93
2024-04-30T10:58:56.514Z,0.60
2024-04-30T11:01:30.185Z,0.63
2024-04-30T11:04:06.741Z,0.60
2024-04-30T11:06:42.134Z,0.60
2024-04-30T11:09:12.048Z,0.57
2024-04-30T11:11:51.353Z,0.70
2024-04-30T11:14:23.580Z,0.40
2024-04-30T11:16:54.266Z,0.50
2024-04-30T11:19:23.743Z,0.57
2024-04-30T11:21:56.253Z,0.50
2024-04-30T11:24:25.691Z,0.70
2024-04-30T11:26:54.293Z,0.70
2024-04-30T11:29:34.209Z,0.40
2024-04-30T11:31:53.146Z,0.40
2024-04-30T11:34:21.738Z,0.77
2024-04-30T11:36:51.492Z,0.60
2024-04-30T11:39:20.086Z,0.40
2024-04-30T11:41:52.760Z,0.50
2024-04-30T11:44:18.564Z,0.50
2024-04-30T11:46:47.129Z,0.63
2024-04-30T11:49:15.729Z,0.50
2024-04-30T11:51:44.328Z,0.40
2024-04-30T11:54:12.858Z,0.60
2024-04-30T11:56:41.412Z,0.40
2024-04-30T11:59:10.940Z,0.40
2024-04-30T12:01:41.530Z,0.60
2024-04-30T12:04:10.246Z,0.35
2024-04-30T12:06:39.248Z,0.50
2024-04-30T12:09:07.817Z,0.33
2024-04-30T12:11:39.667Z,0.33
2024-04-30T12:14:08.270Z,0.40
2024-04-30T12:16:37.024Z,0.60
2024-04-30T12:19:07.523Z,0.37
2024-04-30T12:21:36.078Z,0.33
2024-04-30T12:24:04.666Z,0.70
2024-04-30T12:26:36.370Z,0.40
2024-04-30T12:29:06.444Z,0.40
2024-04-30T12:31:35.446Z,0.40
2024-04-30T12:34:04.050Z,0.63
2024-04-30T12:36:34.216Z,0.33
2024-04-30T12:39:02.619Z,0.20
2024-04-30T12:41:33.638Z,0.60
2024-04-30T12:46:30.454Z,0.33
2024-04-30T12:48:59.741Z,0.33
2024-04-30T12:51:28.386Z,1.23
2024-04-30T12:53:57.522Z,1.00
2024-04-30T12:56:26.120Z,0.67
2024-04-30T12:58:54.636Z,0.60
2024-04-30T13:01:25.652Z,0.30
2024-04-30T13:03:53.731Z,0.42
2024-04-30T13:06:22.300Z,0.70
2024-04-30T13:08:50.869Z,0.37
2024-04-30T13:11:20.374Z,0.70
2024-04-30T13:13:48.994Z,0.40
2024-04-30T13:16:17.624Z,0.40
2024-04-30T13:18:46.233Z,0.30
2024-04-30T13:21:17.687Z,0.57
2024-04-30T13:23:46.223Z,0.63
2024-04-30T13:26:14.775Z,0.30
2024-04-30T13:28:43.432Z,0.40
2024-04-30T13:31:12.287Z,0.50
2024-04-30T13:33:42.021Z,0.67
2024-04-30T13:36:16.678Z,0.40
2024-04-30T13:38:45.470Z,0.60
2024-04-30T13:41:14.145Z,0.80
2024-04-30T13:43:43.765Z,0.40
2024-04-30T13:46:12.464Z,0.90
2024-04-30T13:48:41.167Z,0.40
2024-04-30T13:51:09.932Z,0.47
2024-04-30T13:53:38.722Z,0.40
2024-04-30T13:56:07.485Z,0.43
2024-04-30T13:58:36.063Z,0.50
2024-04-30T14:01:04.815Z,0.50
2024-04-30T14:03:33.478Z,0.37
2024-04-30T14:06:03.679Z,1.00
2024-04-30T14:08:31.926Z,0.60
2024-04-30T14:11:00.639Z,0.40
2024-04-30T14:13:29.313Z,0.50
2024-04-30T14:15:58.163Z,0.60
2024-04-30T14:18:26.787Z,0.40
2024-04-30T14:20:56.387Z,0.80
2024-04-30T14:23:26.104Z,0.50
2024-04-30T14:25:54.995Z,0.83
2024-04-30T14:28:25.357Z,0.50
2024-04-30T14:30:53.928Z,0.57
2024-04-30T14:33:22.644Z,0.50
2024-04-30T14:36:09.066Z,0.63
2024-04-30T14:38:39.690Z,0.50
2024-04-30T14:41:09.756Z,0.30
2024-04-30T14:43:38.794Z,0.57
2024-04-30T14:46:08.488Z,0.50
2024-04-30T14:48:37.547Z,0.40
2024-04-30T14:51:06.172Z,0.97
2024-04-30T14:53:35.366Z,0.77
2024-04-30T14:56:05.240Z,0.50
2024-04-30T14:58:33.986Z,0.90
2024-04-30T15:01:02.597Z,0.50
2024-04-30T15:03:34.602Z,0.40
2024-04-30T15:06:03.190Z,0.50
2024-04-30T15:08:32.667Z,1.00
2024-04-30T15:11:01.212Z,0.30
2024-04-30T15:13:29.795Z,0.50
2024-04-30T15:15:58.283Z,0.50
2024-04-30T15:18:27.109Z,0.60
2024-04-30T15:20:57.490Z,0.40
2024-04-30T15:23:25.867Z,0.40
2024-04-30T15:25:54.408Z,0.30
2024-04-30T15:28:23.030Z,0.80
2024-04-30T15:30:51.600Z,0.50
2024-04-30T15:33:20.332Z,0.40
2024-04-30T15:35:49.003Z,0.67
2024-04-30T15:38:17.595Z,0.40
2024-04-30T15:40:46.160Z,0.60
2024-04-30T15:43:15.271Z,0.50
2024-04-30T15:45:43.966Z,0.50
2024-04-30T15:48:12.821Z,0.40
2024-04-30T15:50:41.380Z,0.50
2024-04-30T15:53:09.894Z,0.80
2024-04-30T15:55:38.491Z,0.73
2024-04-30T15:58:07.061Z,0.60
2024-04-30T16:00:35.624Z,0.50
2024-04-30T16:03:04.313Z,0.60
2024-04-30T16:05:32.823Z,0.53
2024-04-30T16:08:02.316Z,0.70
2024-04-30T16:10:30.990Z,0.57
2024-04-30T16:12:59.810Z,0.83
2024-04-30T16:15:28.579Z,0.40
2024-04-30T16:17:57.271Z,0.47
2024-04-30T16:20:27.202Z,0.70
2024-04-30T16:22:55.762Z,0.77
2024-04-30T16:25:24.390Z,0.30
2024-04-30T16:27:53.105Z,0.40
2024-04-30T16:30:21.632Z,0.83
2024-04-30T16:32:50.409Z,0.50
2024-04-30T16:35:20.111Z,0.70
2024-04-30T16:37:48.640Z,0.50
2024-04-30T16:40:18.227Z,0.70
2024-04-30T16:42:49.331Z,0.50
2024-04-30T16:45:18.568Z,0.60
2024-04-30T16:47:49.264Z,0.90
2024-04-30T16:50:17.887Z,0.50
2024-04-30T16:52:46.457Z,0.40
2024-04-30T16:55:15.021Z,0.67
2024-04-30T16:57:43.585Z,0.50
2024-04-30T17:00:12.989Z,0.97
2024-04-30T17:02:41.733Z,0.47
2024-04-30T17:05:10.326Z,0.50
2024-04-30T17:07:41.252Z,0.87
2024-04-30T17:10:09.901Z,0.60
2024-04-30T17:12:38.522Z,0.60
2024-04-30T17:15:07.301Z,0.53
2024-04-30T17:17:35.886Z,0.60
2024-04-30T17:20:04.664Z,0.63
2024-04-30T17:22:33.975Z,0.70
2024-04-30T17:25:03.647Z,0.97
2024-04-30T17:27:32.192Z,0.50
2024-04-30T17:30:00.723Z,0.60
2024-04-30T17:32:29.464Z,0.57
2024-04-30T17:34:58.022Z,0.57
2024-04-30T17:37:26.812Z,0.60
2024-04-30T17:39:57.162Z,0.60
2024-04-30T17:42:25.806Z,1.13
2024-04-30T17:44:54.323Z,1.00
2024-04-30T17:47:23.013Z,0.90
2024-04-30T17:49:52.554Z,0.57
2024-04-30T17:52:21.123Z,1.13
2024-04-30T17:54:50.637Z,0.93
2024-04-30T17:57:19.159Z,0.90
2024-04-30T17:59:47.674Z,1.00
2024-04-30T18:02:16.472Z,0.70
2024-04-30T18:04:45.992Z,0.70
2024-04-30T18:07:16.659Z,0.90
2024-04-30T18:09:45.249Z,1.92
2024-04-30T18:12:14.167Z,0.83
2024-04-30T18:14:43.721Z,0.97
2024-04-30T18:17:13.295Z,0.60
2024-04-30T18:19:43.494Z,0.70
2024-04-30T18:22:12.030Z,1.00
2024-04-30T18:24:40.561Z,0.53
2024-04-30T18:27:10.105Z,0.60
2024-04-30T18:29:38.624Z,0.93
2024-04-30T18:32:07.662Z,0.93
2024-04-30T18:34:37.495Z,0.60
2024-04-30T18:37:07.825Z,0.70
2024-04-30T18:39:36.483Z,1.47
2024-04-30T18:42:05.882Z,0.67
2024-04-30T18:44:35.101Z,0.60
2024-04-30T18:47:03.801Z,0.97
2024-04-30T18:49:32.499Z,0.40
2024-04-30T18:52:01.124Z,1.00
2024-04-30T18:54:29.713Z,0.90
2024-04-30T18:56:58.272Z,0.83
2024-04-30T18:59:26.797Z,0.90
2024-04-30T19:01:55.318Z,0.60
2024-04-30T19:04:25.175Z,0.77
2024-04-30T19:06:55.749Z,0.50
2024-04-30T19:09:24.473Z,0.60
2024-04-30T19:11:53.141Z,0.80
2024-04-30T19:14:21.615Z,0.73
2024-04-30T19:16:51.116Z,0.83
2024-04-30T19:19:21.408Z,0.70
2024-04-30T19:21:50.084Z,0.73
2024-04-30T19:24:21.307Z,0.80
2024-04-30T19:26:49.906Z,0.68
2024-04-30T19:29:18.576Z,0.90
2024-04-30T19:31:47.217Z,0.70
2024-04-30T19:34:16.786Z,0.87
2024-04-30T19:36:45.514Z,1.00
2024-04-30T19:39:13.999Z,0.90
2024-04-30T19:41:42.555Z,0.97
2024-04-30T19:44:11.157Z,1.00
2024-04-30T19:46:39.696Z,1.03
2024-04-30T19:49:08.407Z,0.97
2024-04-30T19:51:37.053Z,0.80
2024-04-30T19:54:05.594Z,0.80
2024-04-30T19:56:34.181Z,0.70
2024-04-30T19:59:05.764Z,0.77
2024-04-30T20:01:34.445Z,1.00
2024-04-30T20:04:03.262Z,1.13
2024-04-30T20:06:31.871Z,1.10
2024-04-30T20:09:05.624Z,0.97
2024-04-30T20:11:35.809Z,1.33
2024-04-30T20:14:04.631Z,0.60
2024-04-30T20:16:33.244Z,1.10
2024-04-30T20:19:01.843Z,0.73
2024-04-30T20:21:31.354Z,0.63
2024-04-30T20:23:59.928Z,0.73
2024-04-30T20:26:28.474Z,0.70
2024-04-30T20:28:59.019Z,0.93
2024-04-30T20:31:29.557Z,0.93
2024-04-30T20:33:58.106Z,0.90
2024-04-30T20:36:26.739Z,1.53
2024-04-30T20:38:55.322Z,1.03
2024-04-30T20:41:23.855Z,1.33
2024-04-30T20:43:52.455Z,1.00
2024-04-30T20:46:21.059Z,1.03
2024-04-30T20:48:50.101Z,1.10
2024-04-30T20:51:19.029Z,1.10
2024-04-30T20:53:47.606Z,0.73
2024-04-30T20:56:17.096Z,0.80
2024-04-30T20:58:47.909Z,1.00
2024-04-30T21:01:17.356Z,1.07
2024-04-30T21:03:46.416Z,0.82
2024-04-30T21:06:15.069Z,0.80
2024-04-30T21:08:43.758Z,0.80
2024-04-30T21:11:14.108Z,0.83
2024-04-30T21:13:43.186Z,1.10
2024-04-30T21:16:11.847Z,0.67
2024-04-30T21:18:40.867Z,1.10
2024-04-30T21:21:09.515Z,1.47
2024-04-30T21:23:42.677Z,1.27
2024-04-30T21:26:10.451Z,1.10
2024-04-30T21:28:39.249Z,1.02
2024-04-30T21:31:08.253Z,0.90
2024-04-30T21:33:39.007Z,1.20
2024-04-30T21:36:08.413Z,1.00
2024-04-30T21:38:38.140Z,0.90
2024-04-30T21:41:06.995Z,1.15
2024-04-30T21:43:35.814Z,1.47
2024-04-30T21:46:04.758Z,1.67
2024-04-30T21:48:33.440Z,1.17
2024-04-30T21:51:02.325Z,1.30
2024-04-30T21:53:32.943Z,1.60
2024-04-30T21:56:02.051Z,1.67
2024-04-30T21:58:30.858Z,1.32
2024-04-30T22:00:59.873Z,1.87
2024-04-30T22:03:28.593Z,1.90
2024-04-30T22:05:57.619Z,1.75
2024-04-30T22:08:26.728Z,1.42
2024-04-30T22:10:55.568Z,1.75
2024-04-30T22:13:24.538Z,1.57
2024-04-30T22:15:54.898Z,1.77
2024-04-30T22:18:23.499Z,1.80
2024-04-30T22:20:52.391Z,1.67
2024-04-30T22:23:21.597Z,1.55
2024-04-30T22:25:50.444Z,1.22
2024-04-30T22:28:19.251Z,1.45
2024-04-30T22:30:49.153Z,1.20
2024-04-30T22:33:18.051Z,1.20
2024-04-30T22:35:47.017Z,1.05
2024-04-30T22:38:16.389Z,1.00
2024-04-30T22:40:45.251Z,1.35
2024-04-30T22:43:14.069Z,1.10
2024-04-30T22:45:42.924Z,1.27
2024-04-30T22:48:11.929Z,1.02
2024-04-30T22:50:40.901Z,1.45
2024-04-30T22:53:10.226Z,1.27
2024-04-30T22:55:39.067Z,0.95
2024-04-30T22:58:07.947Z,1.17
2024-04-30T23:00:36.866Z,1.47
2024-04-30T23:03:05.875Z,1.15
2024-04-30T23:05:34.686Z,1.30
2024-04-30T23:08:03.531Z,1.17
2024-04-30T23:10:32.323Z,1.50
2024-04-30T23:13:01.808Z,1.30
2024-04-30T23:15:30.723Z,1.27
2024-04-30T23:17:59.664Z,1.05
2024-04-30T23:20:28.522Z,1.17
2024-04-30T23:22:57.051Z,0.90
2024-04-30T23:25:25.866Z,1.25
2024-04-30T23:27:54.794Z,1.50
2024-04-30T23:30:24.647Z,1.35
2024-04-30T23:32:53.535Z,1.52
2024-04-30T23:35:22.429Z,1.30
2024-04-30T23:37:51.247Z,1.00
2024-04-30T23:40:20.228Z,1.35
2024-04-30T23:42:50.061Z,1.25
2024-04-30T23:45:18.703Z,0.77
2024-04-30T23:47:48.524Z,1.42
2024-04-30T23:50:17.334Z,1.20
2024-04-30T23:52:46.160Z,1.27
2024-04-30T23:55:14.993Z,1.10
2024-04-30T23:57:43.891Z,0.93
